createdAt,value
2018-12-29T00:02:47.539Z,43.83
2018-12-29T00:07:43.534Z,42.23
2018-12-29T00:12:39.529Z,41.77
2018-12-29T00:17:35.423Z,40.73
2018-12-29T00:22:31.323Z,45.53
2018-12-29T00:27:27.214Z,43.23
2018-12-29T00:32:23.113Z,42.40
2018-12-29T00:38:00.749Z,45.10
2018-12-29T00:42:56.650Z,41.97
2018-12-29T00:47:52.660Z,41.87
2018-12-29T00:52:48.574Z,43.50
2018-12-29T00:57:44.476Z,43.17
2018-12-29T01:02:40.439Z,42.50
2018-12-29T01:07:36.444Z,46.47
2018-12-29T01:12:32.361Z,43.40
2018-12-29T01:17:28.264Z,43.53
2018-12-29T01:22:24.168Z,41.97
2018-12-29T01:27:20.132Z,43.10
2018-12-29T01:32:16.063Z,41.80
2018-12-29T01:37:11.959Z,39.77
2018-12-29T01:42:07.869Z,41.77
2018-12-29T01:47:03.822Z,44.57
2018-12-29T01:51:59.723Z,45.93
2018-12-29T01:56:55.598Z,42.47
2018-12-29T02:01:52.407Z,42.37
2018-12-29T02:06:48.276Z,43.00
2018-12-29T02:11:44.211Z,43.50
2018-12-29T02:16:40.106Z,46.43
2018-12-29T02:21:36.007Z,40.27
2018-12-29T02:31:40.468Z,42.30
2018-12-29T02:36:36.357Z,45.80
2018-12-29T02:41:32.261Z,43.50
2018-12-29T02:46:28.179Z,47.00
2018-12-29T02:51:24.087Z,42.80
2018-12-29T02:56:19.982Z,42.63
2018-12-29T03:01:36.319Z,44.40
2018-12-29T03:06:32.267Z,45.37
2018-12-29T03:11:28.167Z,43.07
2018-12-29T03:16:24.066Z,46.20
2018-12-29T03:21:19.962Z,42.47
2018-12-29T03:26:15.860Z,42.10
2018-12-29T03:31:15.137Z,41.17
2018-12-29T03:36:11.065Z,41.40
2018-12-29T03:41:06.968Z,41.67
2018-12-29T03:46:02.895Z,43.40
2018-12-29T03:50:58.786Z,43.07
2018-12-29T03:55:54.740Z,41.07
2018-12-29T04:01:12.462Z,43.23
2018-12-29T04:06:08.470Z,39.60
2018-12-29T04:11:04.478Z,41.37
2018-12-29T04:16:00.378Z,39.47
2018-12-29T04:20:56.279Z,42.57
2018-12-29T04:25:52.289Z,38.83
2018-12-29T04:31:09.116Z,47.03
2018-12-29T04:36:05.113Z,42.33
2018-12-29T04:41:01.011Z,41.23
2018-12-29T04:45:57.039Z,40.00
2018-12-29T04:50:52.934Z,43.57
2018-12-29T04:55:48.831Z,44.17
2018-12-29T05:00:45.313Z,42.60
2018-12-29T05:05:41.207Z,41.93
2018-12-29T05:10:37.104Z,39.90
2018-12-29T05:15:33.006Z,43.17
2018-12-29T05:20:28.902Z,43.00
2018-12-29T05:25:24.797Z,40.70
2018-12-29T05:30:20.698Z,43.67
2018-12-29T05:35:16.591Z,39.10
2018-12-29T05:40:12.499Z,41.30
2018-12-29T05:45:08.391Z,41.67
2018-12-29T05:50:04.385Z,46.87
2018-12-29T05:55:00.290Z,45.90
2018-12-29T05:59:56.181Z,41.63
2018-12-29T06:04:52.055Z,44.17
2018-12-29T06:09:47.946Z,40.97
2018-12-29T06:14:43.851Z,46.17
2018-12-29T06:19:39.742Z,42.70
2018-12-29T06:24:35.662Z,42.40
2018-12-29T06:29:31.542Z,42.60
2018-12-29T06:34:27.448Z,44.10
2018-12-29T06:39:23.342Z,39.37
2018-12-29T06:44:19.240Z,40.63
2018-12-29T06:49:15.261Z,42.17
2018-12-29T06:54:11.174Z,44.97
2018-12-29T06:59:07.067Z,45.97
2018-12-29T07:04:02.971Z,41.00
2018-12-29T07:08:58.874Z,47.23
2018-12-29T07:13:54.772Z,46.37
2018-12-29T07:18:50.830Z,43.13
2018-12-29T07:23:46.760Z,43.27
2018-12-29T07:28:42.680Z,45.30
2018-12-29T07:33:38.811Z,43.53
2018-12-29T07:38:34.712Z,46.50
2018-12-29T07:43:30.665Z,42.97
2018-12-29T07:48:26.586Z,42.23
2018-12-29T07:53:22.492Z,47.03
2018-12-29T07:58:18.404Z,42.90
2018-12-29T08:03:14.317Z,47.70
2018-12-29T08:08:10.228Z,45.13
2018-12-29T08:13:06.138Z,45.80
2018-12-29T08:18:02.077Z,45.70
2018-12-29T08:22:57.988Z,49.33
2018-12-29T08:27:54.075Z,45.53
2018-12-29T08:32:50.011Z,42.50
2018-12-29T08:37:53.588Z,60.63
2018-12-29T08:42:49.534Z,40.47
2018-12-29T08:47:45.463Z,45.77
2018-12-29T08:52:41.395Z,42.67
2018-12-29T08:57:38.126Z,45.40
2018-12-29T09:02:36.013Z,46.50
2018-12-29T09:07:31.955Z,59.00
2018-12-29T09:12:28.846Z,55.83
2018-12-29T09:17:24.753Z,49.03
2018-12-29T09:22:20.684Z,48.50
2018-12-29T09:27:16.592Z,45.40
2018-12-29T09:32:32.403Z,47.67
2018-12-29T09:37:28.336Z,54.07
2018-12-29T09:42:24.285Z,54.17
2018-12-29T09:47:20.215Z,55.33
2018-12-29T09:52:16.110Z,49.77
2018-12-29T09:57:12.019Z,58.03
2018-12-29T10:02:07.925Z,73.90
2018-12-29T10:07:03.989Z,52.30
2018-12-29T10:11:59.954Z,52.27
2018-12-29T10:16:55.873Z,64.97
2018-12-29T10:21:51.835Z,60.83
2018-12-29T10:32:11.363Z,50.90
2018-12-29T10:37:07.333Z,53.27
2018-12-29T10:42:03.455Z,55.37
2018-12-29T10:46:59.561Z,50.57
2018-12-29T10:51:55.594Z,57.47
2018-12-29T10:56:51.565Z,53.13
2018-12-29T11:01:47.552Z,49.47
2018-12-29T11:06:43.527Z,53.20
2018-12-29T11:11:39.729Z,51.43
2018-12-29T11:17:17.361Z,39.47
2018-12-29T11:22:13.338Z,33.90
2018-12-29T11:27:09.261Z,31.63
2018-12-29T11:32:05.310Z,35.07
2018-12-29T11:37:01.323Z,24.27
2018-12-29T11:41:57.303Z,34.70
2018-12-29T11:46:53.275Z,36.93
2018-12-29T11:51:49.176Z,39.87
2018-12-29T11:56:45.098Z,44.63
2018-12-29T12:01:41.755Z,31.50
2018-12-29T12:06:37.739Z,36.90
2018-12-29T12:11:33.704Z,41.90
2018-12-29T12:16:29.623Z,43.17
2018-12-29T12:21:25.528Z,45.07
2018-12-29T12:26:21.647Z,44.63
2018-12-29T12:31:19.913Z,44.40
2018-12-29T12:36:15.922Z,35.50
2018-12-29T12:41:11.891Z,27.53
2018-12-29T12:46:07.929Z,41.87
2018-12-29T12:51:03.857Z,43.17
2018-12-29T12:55:59.774Z,39.23
2018-12-29T13:01:17.025Z,38.33
2018-12-29T13:06:13.022Z,40.40
2018-12-29T13:11:08.933Z,25.20
2018-12-29T13:16:04.842Z,29.93
2018-12-29T13:21:00.744Z,34.60
2018-12-29T13:25:56.734Z,35.63
2018-12-29T13:31:34.611Z,34.60
2018-12-29T13:36:30.605Z,30.90
2018-12-29T13:41:26.525Z,28.07
2018-12-29T13:46:22.462Z,27.27
2018-12-29T13:51:18.381Z,26.27
2018-12-29T13:56:14.293Z,32.40
2018-12-29T14:01:32.573Z,30.10
2018-12-29T14:06:28.541Z,31.03
2018-12-29T14:11:24.485Z,29.23
2018-12-29T14:16:20.551Z,28.70
2018-12-29T14:21:16.447Z,28.70
2018-12-29T14:26:12.488Z,28.90
2018-12-29T14:31:10.569Z,31.03
2018-12-29T14:36:06.611Z,23.63
2018-12-29T14:41:02.505Z,28.90
2018-12-29T14:45:58.471Z,29.47
2018-12-29T14:50:54.384Z,25.30
2018-12-29T14:55:50.288Z,30.13
2018-12-29T15:00:46.299Z,21.57
2018-12-29T15:05:42.281Z,30.57
2018-12-29T15:10:38.204Z,24.07
2018-12-29T15:15:36.781Z,22.53
2018-12-29T15:20:33.083Z,25.70
2018-12-29T15:25:29.201Z,23.63
2018-12-29T15:30:25.103Z,22.73
2018-12-29T15:35:21.011Z,28.80
2018-12-29T15:40:16.999Z,30.00
2018-12-29T15:45:12.905Z,30.93
2018-12-29T15:50:22.626Z,29.03
2018-12-29T15:55:18.934Z,29.03
2018-12-29T16:00:14.835Z,30.10
2018-12-29T16:05:10.737Z,26.60
2018-12-29T16:10:07.054Z,22.60
2018-12-29T16:15:44.618Z,22.97
2018-12-29T16:20:40.520Z,14.27
2018-12-29T16:25:36.423Z,22.10
2018-12-29T16:30:32.400Z,17.90
2018-12-29T16:35:28.505Z,17.20
2018-12-29T16:40:26.301Z,9.77
2018-12-29T16:45:22.230Z,11.03
2018-12-29T16:50:18.128Z,12.60
2018-12-29T16:55:14.030Z,15.07
2018-12-29T17:00:09.926Z,10.70
2018-12-29T17:05:05.828Z,16.57
2018-12-29T17:10:01.729Z,11.70
2018-12-29T17:14:57.633Z,14.40
2018-12-29T17:19:53.533Z,14.60
2018-12-29T17:24:49.430Z,15.80
2018-12-29T17:29:45.326Z,20.87
2018-12-29T17:34:41.228Z,20.17
2018-12-29T17:39:37.124Z,19.43
2018-12-29T17:44:33.016Z,20.13
2018-12-29T17:49:28.922Z,19.90
2018-12-29T17:54:26.715Z,16.80
2018-12-29T17:59:22.617Z,21.57
2018-12-29T18:04:20.437Z,22.37
2018-12-29T18:09:16.346Z,19.90
2018-12-29T18:14:12.251Z,18.30
2018-12-29T18:19:08.143Z,13.40
2018-12-29T18:24:04.048Z,12.13
2018-12-29T18:28:59.944Z,19.80
2018-12-29T18:33:55.814Z,18.27
2018-12-29T18:38:51.715Z,26.03
2018-12-29T18:43:49.509Z,20.37
2018-12-29T18:48:45.407Z,23.63
2018-12-29T18:53:41.307Z,14.97
2018-12-29T18:58:37.200Z,22.90
2018-12-29T19:03:33.105Z,28.80
2018-12-29T19:08:29.398Z,25.37
2018-12-29T19:13:25.347Z,37.97
2018-12-29T19:18:23.092Z,24.30
2018-12-29T19:23:19.003Z,28.60
2018-12-29T19:28:16.911Z,21.00
2018-12-29T19:33:12.811Z,28.93
2018-12-29T19:38:08.761Z,24.30
2018-12-29T19:43:06.520Z,21.97
2018-12-29T19:48:22.494Z,21.00
2018-12-29T19:53:18.674Z,23.57
2018-12-29T19:58:14.573Z,26.13
2018-12-29T20:03:11.321Z,24.00
2018-12-29T20:08:08.335Z,18.30
2018-12-29T20:13:04.338Z,27.47
2018-12-29T20:18:00.277Z,19.10
2018-12-29T20:22:56.238Z,15.60
2018-12-29T20:27:52.149Z,12.07
2018-12-29T20:32:48.101Z,19.20
2018-12-29T20:37:44.012Z,13.07
2018-12-29T20:43:00.094Z,6.70
2018-12-29T20:47:56.214Z,3.03
2018-12-29T20:52:52.328Z,2.03
2018-12-29T20:57:48.223Z,2.43
2018-12-29T21:02:44.235Z,3.70
2018-12-29T21:07:40.330Z,2.43
2018-12-29T21:12:36.269Z,1.07
2018-12-29T21:17:32.203Z,1.47
2018-12-29T21:22:28.290Z,1.37
2018-12-29T21:27:24.197Z,1.83
2018-12-29T21:32:20.242Z,2.03
2018-12-29T21:37:16.209Z,2.30
2018-12-29T21:42:12.187Z,0.83
2018-12-29T21:47:08.091Z,1.23
2018-12-29T21:52:26.833Z,2.50
2018-12-29T21:57:22.839Z,2.33
2018-12-29T22:02:18.735Z,1.60
2018-12-29T22:07:14.693Z,1.73
2018-12-29T22:12:10.591Z,1.90
2018-12-29T22:17:06.830Z,1.70
2018-12-29T22:22:03.242Z,4.30
2018-12-29T22:26:59.135Z,3.50
2018-12-29T22:31:55.807Z,2.63
2018-12-29T22:36:51.733Z,2.43
2018-12-29T22:41:47.727Z,3.07
2018-12-29T22:46:43.625Z,3.23
2018-12-29T22:51:39.523Z,2.97
2018-12-29T22:56:35.426Z,4.60
2018-12-29T23:01:32.206Z,2.00
2018-12-29T23:06:28.149Z,4.03
2018-12-29T23:11:24.141Z,2.60
2018-12-29T23:16:20.138Z,2.93
2018-12-29T23:21:17.953Z,3.93
2018-12-29T23:26:13.871Z,3.17
2018-12-29T23:31:51.755Z,2.73
2018-12-29T23:36:47.706Z,2.43
2018-12-29T23:41:43.643Z,3.50
2018-12-29T23:46:39.670Z,6.63
2018-12-29T23:51:35.687Z,2.90
2018-12-29T23:56:33.459Z,2.00
